sensor_id;sensor_type;location;lat;lon;timestamp;temperature;humidity
7762;DHT22;3925;48.636;9.516;2023-06-19T00:01:42;23.10;59.00
7762;DHT22;3925;48.636;9.516;2023-06-19T00:04:09;23.10;60.60
7762;DHT22;3925;48.636;9.516;2023-06-19T00:06:36;23.10;61.00
7762;DHT22;3925;48.636;9.516;2023-06-19T00:09:06;23.10;61.40
7762;DHT22;3925;48.636;9.516;2023-06-19T00:11:33;23.10;61.20
7762;DHT22;3925;48.636;9.516;2023-06-19T00:13:59;23.00;61.80
7762;DHT22;3925;48.636;9.516;2023-06-19T00:16:26;23.10;61.70
7762;DHT22;3925;48.636;9.516;2023-06-19T00:18:53;23.10;61.70
7762;DHT22;3925;48.636;9.516;2023-06-19T00:21:21;23.10;62.10
7762;DHT22;3925;48.636;9.516;2023-06-19T00:23:49;23.00;63.10
7762;DHT22;3925;48.636;9.516;2023-06-19T00:26:18;23.00;64.20
7762;DHT22;3925;48.636;9.516;2023-06-19T00:28:48;23.00;64.70
7762;DHT22;3925;48.636;9.516;2023-06-19T00:31:15;22.90;64.40
7762;DHT22;3925;48.636;9.516;2023-06-19T00:33:42;22.90;64.60
7762;DHT22;3925;48.636;9.516;2023-06-19T00:36:09;22.90;64.20
7762;DHT22;3925;48.636;9.516;2023-06-19T00:38:37;22.90;64.20
7762;DHT22;3925;48.636;9.516;2023-06-19T00:41:04;22.90;64.40
7762;DHT22;3925;48.636;9.516;2023-06-19T00:43:33;22.80;65.60
7762;DHT22;3925;48.636;9.516;2023-06-19T00:46:01;22.80;65.00
7762;DHT22;3925;48.636;9.516;2023-06-19T00:48:29;22.80;64.20
7762;DHT22;3925;48.636;9.516;2023-06-19T00:50:57;22.80;64.50
7762;DHT22;3925;48.636;9.516;2023-06-19T00:53:24;22.80;65.80
7762;DHT22;3925;48.636;9.516;2023-06-19T00:55:53;22.70;65.40
7762;DHT22;3925;48.636;9.516;2023-06-19T00:58:20;22.80;66.70
7762;DHT22;3925;48.636;9.516;2023-06-19T01:00:49;22.80;67.00
7762;DHT22;3925;48.636;9.516;2023-06-19T01:03:16;22.70;67.70
7762;DHT22;3925;48.636;9.516;2023-06-19T01:05:44;22.70;68.00
7762;DHT22;3925;48.636;9.516;2023-06-19T01:08:20;22.60;68.10
7762;DHT22;3925;48.636;9.516;2023-06-19T01:10:53;22.50;68.80
7762;DHT22;3925;48.636;9.516;2023-06-19T01:13:25;22.50;68.90
7762;DHT22;3925;48.636;9.516;2023-06-19T01:15:55;22.50;69.10
7762;DHT22;3925;48.636;9.516;2023-06-19T01:18:23;22.40;69.70
7762;DHT22;3925;48.636;9.516;2023-06-19T01:20:52;22.50;70.20
7762;DHT22;3925;48.636;9.516;2023-06-19T01:23:20;22.40;70.00
7762;DHT22;3925;48.636;9.516;2023-06-19T01:25:47;22.30;70.00
7762;DHT22;3925;48.636;9.516;2023-06-19T01:28:14;22.30;71.80
7762;DHT22;3925;48.636;9.516;2023-06-19T01:30:43;22.20;73.30
7762;DHT22;3925;48.636;9.516;2023-06-19T01:33:15;22.10;75.50
7762;DHT22;3925;48.636;9.516;2023-06-19T01:35:43;22.00;76.80
7762;DHT22;3925;48.636;9.516;2023-06-19T01:38:13;22.00;77.80
7762;DHT22;3925;48.636;9.516;2023-06-19T01:40:42;22.10;77.40
7762;DHT22;3925;48.636;9.516;2023-06-19T01:43:09;22.00;80.00
7762;DHT22;3925;48.636;9.516;2023-06-19T01:45:36;22.00;80.70
7762;DHT22;3925;48.636;9.516;2023-06-19T01:48:04;22.00;79.50
7762;DHT22;3925;48.636;9.516;2023-06-19T01:50:31;22.00;81.70
7762;DHT22;3925;48.636;9.516;2023-06-19T01:52:57;22.00;82.10
7762;DHT22;3925;48.636;9.516;2023-06-19T01:55:24;22.00;82.20
7762;DHT22;3925;48.636;9.516;2023-06-19T01:57:53;22.00;83.70
7762;DHT22;3925;48.636;9.516;2023-06-19T02:00:20;21.80;83.80
7762;DHT22;3925;48.636;9.516;2023-06-19T02:02:46;21.60;84.70
7762;DHT22;3925;48.636;9.516;2023-06-19T02:05:13;21.60;86.10
7762;DHT22;3925;48.636;9.516;2023-06-19T02:07:40;21.60;86.70
7762;DHT22;3925;48.636;9.516;2023-06-19T02:10:08;21.50;86.70
7762;DHT22;3925;48.636;9.516;2023-06-19T02:12:35;21.60;86.60
7762;DHT22;3925;48.636;9.516;2023-06-19T02:15:04;21.60;86.20
7762;DHT22;3925;48.636;9.516;2023-06-19T02:17:31;21.60;86.70
7762;DHT22;3925;48.636;9.516;2023-06-19T02:19:58;21.70;87.30
7762;DHT22;3925;48.636;9.516;2023-06-19T02:22:25;21.70;87.70
7762;DHT22;3925;48.636;9.516;2023-06-19T02:24:52;21.70;88.20
7762;DHT22;3925;48.636;9.516;2023-06-19T02:27:19;21.70;88.80
7762;DHT22;3925;48.636;9.516;2023-06-19T02:29:45;21.60;88.90
7762;DHT22;3925;48.636;9.516;2023-06-19T02:32:14;21.60;89.50
7762;DHT22;3925;48.636;9.516;2023-06-19T02:34:41;21.60;90.20
7762;DHT22;3925;48.636;9.516;2023-06-19T02:37:07;21.60;90.60
7762;DHT22;3925;48.636;9.516;2023-06-19T02:39:34;21.60;90.70
7762;DHT22;3925;48.636;9.516;2023-06-19T02:42:01;21.60;90.60
7762;DHT22;3925;48.636;9.516;2023-06-19T02:44:28;21.60;90.90
7762;DHT22;3925;48.636;9.516;2023-06-19T02:46:55;21.60;91.10
7762;DHT22;3925;48.636;9.516;2023-06-19T02:49:23;21.50;91.30
7762;DHT22;3925;48.636;9.516;2023-06-19T02:51:50;21.50;91.80
7762;DHT22;3925;48.636;9.516;2023-06-19T02:54:16;21.50;92.00
7762;DHT22;3925;48.636;9.516;2023-06-19T02:56:43;21.50;92.20
7762;DHT22;3925;48.636;9.516;2023-06-19T02:59:10;21.40;92.80
7762;DHT22;3925;48.636;9.516;2023-06-19T03:01:37;21.40;93.30
7762;DHT22;3925;48.636;9.516;2023-06-19T03:04:04;21.40;93.50
7762;DHT22;3925;48.636;9.516;2023-06-19T03:06:32;21.40;93.60
7762;DHT22;3925;48.636;9.516;2023-06-19T03:09:05;21.40;93.80
7762;DHT22;3925;48.636;9.516;2023-06-19T03:11:37;21.40;94.30
7762;DHT22;3925;48.636;9.516;2023-06-19T03:14:04;21.40;94.60
7762;DHT22;3925;48.636;9.516;2023-06-19T03:16:33;21.40;95.10
7762;DHT22;3925;48.636;9.516;2023-06-19T03:19:00;21.40;95.30
7762;DHT22;3925;48.636;9.516;2023-06-19T03:21:27;21.40;95.70
7762;DHT22;3925;48.636;9.516;2023-06-19T03:23:55;21.50;95.80
7762;DHT22;3925;48.636;9.516;2023-06-19T03:26:23;21.40;95.90
7762;DHT22;3925;48.636;9.516;2023-06-19T03:28:50;21.40;96.20
7762;DHT22;3925;48.636;9.516;2023-06-19T03:31:17;21.40;96.30
7762;DHT22;3925;48.636;9.516;2023-06-19T03:33:43;21.40;96.70
7762;DHT22;3925;48.636;9.516;2023-06-19T03:36:10;21.40;96.70
7762;DHT22;3925;48.636;9.516;2023-06-19T03:38:37;21.40;97.10
7762;DHT22;3925;48.636;9.516;2023-06-19T03:41:05;21.40;97.10
7762;DHT22;3925;48.636;9.516;2023-06-19T03:43:32;21.40;97.50
7762;DHT22;3925;48.636;9.516;2023-06-19T03:45:59;21.40;97.60
7762;DHT22;3925;48.636;9.516;2023-06-19T03:48:26;21.40;97.80
7762;DHT22;3925;48.636;9.516;2023-06-19T03:50:53;21.40;97.70
7762;DHT22;3925;48.636;9.516;2023-06-19T03:53:20;21.50;97.90
7762;DHT22;3925;48.636;9.516;2023-06-19T03:55:47;21.60;97.90
7762;DHT22;3925;48.636;9.516;2023-06-19T03:58:15;21.60;97.90
7762;DHT22;3925;48.636;9.516;2023-06-19T04:00:42;21.70;97.70
7762;DHT22;3925;48.636;9.516;2023-06-19T04:03:09;21.70;98.00
7762;DHT22;3925;48.636;9.516;2023-06-19T04:05:36;21.60;98.20
7762;DHT22;3925;48.636;9.516;2023-06-19T04:08:04;21.70;98.20
7762;DHT22;3925;48.636;9.516;2023-06-19T04:10:31;21.70;98.20
7762;DHT22;3925;48.636;9.516;2023-06-19T04:12:58;21.70;98.30
7762;DHT22;3925;48.636;9.516;2023-06-19T04:15:26;21.70;98.10
7762;DHT22;3925;48.636;9.516;2023-06-19T04:17:53;21.70;98.70
7762;DHT22;3925;48.636;9.516;2023-06-19T04:20:19;21.60;98.40
7762;DHT22;3925;48.636;9.516;2023-06-19T04:22:47;21.80;98.30
7762;DHT22;3925;48.636;9.516;2023-06-19T04:25:14;21.80;98.40
7762;DHT22;3925;48.636;9.516;2023-06-19T04:27:40;21.80;98.10
7762;DHT22;3925;48.636;9.516;2023-06-19T04:30:08;21.80;98.00
7762;DHT22;3925;48.636;9.516;2023-06-19T04:32:36;21.90;97.80
7762;DHT22;3925;48.636;9.516;2023-06-19T04:35:06;21.90;97.60
7762;DHT22;3925;48.636;9.516;2023-06-19T04:37:33;21.90;97.40
7762;DHT22;3925;48.636;9.516;2023-06-19T04:40:00;22.00;97.40
7762;DHT22;3925;48.636;9.516;2023-06-19T04:42:28;22.10;97.40
7762;DHT22;3925;48.636;9.516;2023-06-19T04:44:55;22.10;97.50
7762;DHT22;3925;48.636;9.516;2023-06-19T04:47:25;22.10;97.30
7762;DHT22;3925;48.636;9.516;2023-06-19T04:49:53;22.10;97.40
7762;DHT22;3925;48.636;9.516;2023-06-19T04:52:20;22.20;97.50
7762;DHT22;3925;48.636;9.516;2023-06-19T04:54:46;22.10;97.50
7762;DHT22;3925;48.636;9.516;2023-06-19T04:57:14;22.20;97.50
7762;DHT22;3925;48.636;9.516;2023-06-19T04:59:41;22.10;97.60
7762;DHT22;3925;48.636;9.516;2023-06-19T05:02:09;22.20;97.90
7762;DHT22;3925;48.636;9.516;2023-06-19T05:04:36;22.20;97.40
7762;DHT22;3925;48.636;9.516;2023-06-19T05:07:05;22.20;97.70
7762;DHT22;3925;48.636;9.516;2023-06-19T05:09:32;22.20;97.60
7762;DHT22;3925;48.636;9.516;2023-06-19T05:11:59;22.10;97.90
7762;DHT22;3925;48.636;9.516;2023-06-19T05:14:26;22.20;98.30
7762;DHT22;3925;48.636;9.516;2023-06-19T05:16:53;22.10;98.50
7762;DHT22;3925;48.636;9.516;2023-06-19T05:19:20;22.10;98.60
7762;DHT22;3925;48.636;9.516;2023-06-19T05:21:47;22.20;98.50
7762;DHT22;3925;48.636;9.516;2023-06-19T05:24:15;22.20;98.40
7762;DHT22;3925;48.636;9.516;2023-06-19T05:26:42;22.30;98.70
7762;DHT22;3925;48.636;9.516;2023-06-19T05:29:09;22.40;98.80
7762;DHT22;3925;48.636;9.516;2023-06-19T05:31:36;22.40;99.20
7762;DHT22;3925;48.636;9.516;2023-06-19T05:34:03;22.30;99.10
7762;DHT22;3925;48.636;9.516;2023-06-19T05:36:30;22.20;99.20
7762;DHT22;3925;48.636;9.516;2023-06-19T05:38:57;22.10;99.50
7762;DHT22;3925;48.636;9.516;2023-06-19T05:41:25;22.20;99.90
7762;DHT22;3925;48.636;9.516;2023-06-19T05:43:52;22.20;99.90
7762;DHT22;3925;48.636;9.516;2023-06-19T05:46:19;22.20;99.90
7762;DHT22;3925;48.636;9.516;2023-06-19T05:48:45;22.20;99.90
7762;DHT22;3925;48.636;9.516;2023-06-19T05:51:12;22.30;99.90
7762;DHT22;3925;48.636;9.516;2023-06-19T05:53:39;22.40;99.90
7762;DHT22;3925;48.636;9.516;2023-06-19T05:56:06;22.30;99.90
7762;DHT22;3925;48.636;9.516;2023-06-19T05:58:34;22.60;99.90
7762;DHT22;3925;48.636;9.516;2023-06-19T06:01:01;22.90;99.40
7762;DHT22;3925;48.636;9.516;2023-06-19T06:03:28;23.00;99.30
7762;DHT22;3925;48.636;9.516;2023-06-19T06:05:56;23.00;99.20
7762;DHT22;3925;48.636;9.516;2023-06-19T06:08:28;23.10;99.10
7762;DHT22;3925;48.636;9.516;2023-06-19T06:10:55;23.30;99.30
7762;DHT22;3925;48.636;9.516;2023-06-19T06:13:22;23.40;98.80
7762;DHT22;3925;48.636;9.516;2023-06-19T06:15:50;23.80;98.60
7762;DHT22;3925;48.636;9.516;2023-06-19T06:18:17;24.20;97.60
7762;DHT22;3925;48.636;9.516;2023-06-19T06:20:44;24.80;96.60
7762;DHT22;3925;48.636;9.516;2023-06-19T06:23:11;24.90;95.20
7762;DHT22;3925;48.636;9.516;2023-06-19T06:25:38;25.40;94.60
7762;DHT22;3925;48.636;9.516;2023-06-19T06:28:05;25.70;93.70
7762;DHT22;3925;48.636;9.516;2023-06-19T06:30:32;25.60;93.60
7762;DHT22;3925;48.636;9.516;2023-06-19T06:33:00;25.50;93.90
7762;DHT22;3925;48.636;9.516;2023-06-19T06:35:27;25.70;93.80
7762;DHT22;3925;48.636;9.516;2023-06-19T06:37:54;26.00;94.00
7762;DHT22;3925;48.636;9.516;2023-06-19T06:40:20;25.80;93.00
7762;DHT22;3925;48.636;9.516;2023-06-19T06:42:47;26.10;92.90
7762;DHT22;3925;48.636;9.516;2023-06-19T06:45:14;26.10;92.90
7762;DHT22;3925;48.636;9.516;2023-06-19T06:47:41;26.50;92.50
7762;DHT22;3925;48.636;9.516;2023-06-19T06:50:10;27.00;91.90
7762;DHT22;3925;48.636;9.516;2023-06-19T06:52:37;28.10;90.30
7762;DHT22;3925;48.636;9.516;2023-06-19T06:55:04;29.80;84.70
7762;DHT22;3925;48.636;9.516;2023-06-19T06:57:31;32.20;75.70
7762;DHT22;3925;48.636;9.516;2023-06-19T06:59:58;34.20;64.50
7762;DHT22;3925;48.636;9.516;2023-06-19T07:02:25;35.60;55.70
7762;DHT22;3925;48.636;9.516;2023-06-19T07:04:52;36.70;51.80
7762;DHT22;3925;48.636;9.516;2023-06-19T07:07:20;37.70;49.20
7762;DHT22;3925;48.636;9.516;2023-06-19T07:09:47;38.80;46.10
7762;DHT22;3925;48.636;9.516;2023-06-19T07:12:14;40.00;44.00
7762;DHT22;3925;48.636;9.516;2023-06-19T07:14:41;41.30;39.00
7762;DHT22;3925;48.636;9.516;2023-06-19T07:17:07;42.20;36.40
7762;DHT22;3925;48.636;9.516;2023-06-19T07:19:34;39.90;37.50
7762;DHT22;3925;48.636;9.516;2023-06-19T07:22:01;38.50;40.90
7762;DHT22;3925;48.636;9.516;2023-06-19T07:24:30;37.90;41.90
7762;DHT22;3925;48.636;9.516;2023-06-19T07:26:57;36.40;42.50
7762;DHT22;3925;48.636;9.516;2023-06-19T07:29:24;34.80;44.30
7762;DHT22;3925;48.636;9.516;2023-06-19T07:31:52;33.70;47.50
7762;DHT22;3925;48.636;9.516;2023-06-19T07:34:18;32.50;50.70
7762;DHT22;3925;48.636;9.516;2023-06-19T07:36:45;31.90;51.10
7762;DHT22;3925;48.636;9.516;2023-06-19T07:39:12;32.20;51.50
7762;DHT22;3925;48.636;9.516;2023-06-19T07:41:40;33.00;51.30
7762;DHT22;3925;48.636;9.516;2023-06-19T07:44:07;34.70;48.70
7762;DHT22;3925;48.636;9.516;2023-06-19T07:46:34;35.90;45.70
7762;DHT22;3925;48.636;9.516;2023-06-19T07:49:01;34.80;45.70
7762;DHT22;3925;48.636;9.516;2023-06-19T07:51:28;34.90;47.00
7762;DHT22;3925;48.636;9.516;2023-06-19T07:53:55;35.40;45.50
7762;DHT22;3925;48.636;9.516;2023-06-19T07:56:22;37.30;43.30
7762;DHT22;3925;48.636;9.516;2023-06-19T07:58:50;36.10;42.70
7762;DHT22;3925;48.636;9.516;2023-06-19T08:01:17;35.60;44.80
7762;DHT22;3925;48.636;9.516;2023-06-19T08:03:43;35.10;46.90
7762;DHT22;3925;48.636;9.516;2023-06-19T08:06:10;36.40;44.40
7762;DHT22;3925;48.636;9.516;2023-06-19T08:08:37;36.20;44.70
7762;DHT22;3925;48.636;9.516;2023-06-19T08:11:04;34.90;44.90
7762;DHT22;3925;48.636;9.516;2023-06-19T08:13:31;34.90;45.20
7762;DHT22;3925;48.636;9.516;2023-06-19T08:15:59;34.90;48.10
7762;DHT22;3925;48.636;9.516;2023-06-19T08:18:26;33.90;46.50
7762;DHT22;3925;48.636;9.516;2023-06-19T08:20:53;32.80;50.80
7762;DHT22;3925;48.636;9.516;2023-06-19T08:23:20;33.90;51.20
7762;DHT22;3925;48.636;9.516;2023-06-19T08:25:46;34.50;49.20
7762;DHT22;3925;48.636;9.516;2023-06-19T08:28:13;34.50;49.30
7762;DHT22;3925;48.636;9.516;2023-06-19T08:30:40;35.40;47.40
7762;DHT22;3925;48.636;9.516;2023-06-19T08:33:08;37.00;43.60
7762;DHT22;3925;48.636;9.516;2023-06-19T08:35:35;38.90;42.20
7762;DHT22;3925;48.636;9.516;2023-06-19T08:38:02;39.80;38.80
7762;DHT22;3925;48.636;9.516;2023-06-19T08:40:29;40.00;38.50
7762;DHT22;3925;48.636;9.516;2023-06-19T08:42:56;40.60;37.40
7762;DHT22;3925;48.636;9.516;2023-06-19T08:45:25;39.50;38.60
7762;DHT22;3925;48.636;9.516;2023-06-19T08:47:58;39.40;38.60
7762;DHT22;3925;48.636;9.516;2023-06-19T08:50:26;38.80;41.10
7762;DHT22;3925;48.636;9.516;2023-06-19T08:52:54;40.40;38.70
7762;DHT22;3925;48.636;9.516;2023-06-19T08:55:21;42.20;35.50
7762;DHT22;3925;48.636;9.516;2023-06-19T08:57:49;41.90;33.20
7762;DHT22;3925;48.636;9.516;2023-06-19T09:00:23;42.10;34.30
7762;DHT22;3925;48.636;9.516;2023-06-19T09:02:51;42.80;33.40
7762;DHT22;3925;48.636;9.516;2023-06-19T09:05:19;43.70;30.40
7762;DHT22;3925;48.636;9.516;2023-06-19T09:07:56;43.20;32.50
7762;DHT22;3925;48.636;9.516;2023-06-19T09:10:24;43.20;29.60
7762;DHT22;3925;48.636;9.516;2023-06-19T09:13:01;43.30;29.20
7762;DHT22;3925;48.636;9.516;2023-06-19T09:15:30;44.70;29.60
7762;DHT22;3925;48.636;9.516;2023-06-19T09:18:04;42.80;28.80
7762;DHT22;3925;48.636;9.516;2023-06-19T09:20:32;43.00;29.00
7762;DHT22;3925;48.636;9.516;2023-06-19T09:23:00;41.40;30.40
7762;DHT22;3925;48.636;9.516;2023-06-19T09:25:27;39.80;33.30
7762;DHT22;3925;48.636;9.516;2023-06-19T09:27:54;38.90;34.00
7762;DHT22;3925;48.636;9.516;2023-06-19T09:30:21;37.90;36.70
7762;DHT22;3925;48.636;9.516;2023-06-19T09:32:48;36.40;38.40
7762;DHT22;3925;48.636;9.516;2023-06-19T09:35:15;35.60;40.10
7762;DHT22;3925;48.636;9.516;2023-06-19T09:37:45;34.80;41.20
7762;DHT22;3925;48.636;9.516;2023-06-19T09:40:14;34.20;42.90
7762;DHT22;3925;48.636;9.516;2023-06-19T09:42:42;34.00;42.70
7762;DHT22;3925;48.636;9.516;2023-06-19T09:45:11;34.70;41.80
7762;DHT22;3925;48.636;9.516;2023-06-19T09:47:43;36.40;40.70
7762;DHT22;3925;48.636;9.516;2023-06-19T09:50:12;37.90;38.90
7762;DHT22;3925;48.636;9.516;2023-06-19T09:52:40;39.90;34.00
7762;DHT22;3925;48.636;9.516;2023-06-19T09:55:08;41.30;32.20
7762;DHT22;3925;48.636;9.516;2023-06-19T09:57:37;41.70;30.10
7762;DHT22;3925;48.636;9.516;2023-06-19T10:00:06;42.00;31.20
7762;DHT22;3925;48.636;9.516;2023-06-19T10:02:40;42.40;29.10
7762;DHT22;3925;48.636;9.516;2023-06-19T10:05:07;42.00;30.00
7762;DHT22;3925;48.636;9.516;2023-06-19T10:07:38;43.00;30.90
7762;DHT22;3925;48.636;9.516;2023-06-19T10:10:08;43.10;30.00
7762;DHT22;3925;48.636;9.516;2023-06-19T10:12:38;43.90;29.40
7762;DHT22;3925;48.636;9.516;2023-06-19T10:15:15;43.40;29.50
7762;DHT22;3925;48.636;9.516;2023-06-19T10:17:47;42.50;30.20
7762;DHT22;3925;48.636;9.516;2023-06-19T10:20:21;41.40;32.10
7762;DHT22;3925;48.636;9.516;2023-06-19T10:22:53;40.60;31.80
7762;DHT22;3925;48.636;9.516;2023-06-19T10:25:23;39.40;34.10
7762;DHT22;3925;48.636;9.516;2023-06-19T10:27:51;39.60;35.90
7762;DHT22;3925;48.636;9.516;2023-06-19T10:30:21;39.60;35.10
7762;DHT22;3925;48.636;9.516;2023-06-19T10:32:48;39.60;35.40
7762;DHT22;3925;48.636;9.516;2023-06-19T10:35:16;39.10;36.50
7762;DHT22;3925;48.636;9.516;2023-06-19T10:37:47;38.50;35.50
7762;DHT22;3925;48.636;9.516;2023-06-19T10:40:14;38.10;35.20
7762;DHT22;3925;48.636;9.516;2023-06-19T10:42:40;38.20;36.10
7762;DHT22;3925;48.636;9.516;2023-06-19T10:45:11;36.20;38.60
7762;DHT22;3925;48.636;9.516;2023-06-19T10:47:39;35.10;39.90
7762;DHT22;3925;48.636;9.516;2023-06-19T10:50:10;34.90;42.30
7762;DHT22;3925;48.636;9.516;2023-06-19T10:52:40;35.40;41.00
7762;DHT22;3925;48.636;9.516;2023-06-19T10:55:08;36.10;41.40
7762;DHT22;3925;48.636;9.516;2023-06-19T10:57:36;35.80;42.50
7762;DHT22;3925;48.636;9.516;2023-06-19T11:00:04;36.00;40.60
7762;DHT22;3925;48.636;9.516;2023-06-19T11:02:38;36.00;41.00
7762;DHT22;3925;48.636;9.516;2023-06-19T11:05:09;35.80;38.60
7762;DHT22;3925;48.636;9.516;2023-06-19T11:07:35;35.50;39.60
7762;DHT22;3925;48.636;9.516;2023-06-19T11:10:03;35.20;40.40
7762;DHT22;3925;48.636;9.516;2023-06-19T11:12:31;35.20;41.20
7762;DHT22;3925;48.636;9.516;2023-06-19T11:14:59;35.30;39.60
7762;DHT22;3925;48.636;9.516;2023-06-19T11:17:25;34.90;37.70
7762;DHT22;3925;48.636;9.516;2023-06-19T11:19:57;34.70;39.30
7762;DHT22;3925;48.636;9.516;2023-06-19T11:22:35;34.40;39.60
7762;DHT22;3925;48.636;9.516;2023-06-19T11:25:03;33.80;40.10
7762;DHT22;3925;48.636;9.516;2023-06-19T11:27:30;34.20;40.50
7762;DHT22;3925;48.636;9.516;2023-06-19T11:29:58;34.30;41.10
7762;DHT22;3925;48.636;9.516;2023-06-19T11:32:31;33.90;41.10
7762;DHT22;3925;48.636;9.516;2023-06-19T11:35:05;33.20;40.80
7762;DHT22;3925;48.636;9.516;2023-06-19T11:37:33;32.80;41.60
7762;DHT22;3925;48.636;9.516;2023-06-19T11:40:01;33.20;43.10
7762;DHT22;3925;48.636;9.516;2023-06-19T11:42:30;33.50;43.00
7762;DHT22;3925;48.636;9.516;2023-06-19T11:45:02;33.90;41.30
7762;DHT22;3925;48.636;9.516;2023-06-19T11:47:30;34.40;40.60
7762;DHT22;3925;48.636;9.516;2023-06-19T11:49:59;34.50;40.60
7762;DHT22;3925;48.636;9.516;2023-06-19T11:52:26;34.80;40.60
7762;DHT22;3925;48.636;9.516;2023-06-19T11:54:53;35.10;40.40
7762;DHT22;3925;48.636;9.516;2023-06-19T11:57:20;34.60;39.70
7762;DHT22;3925;48.636;9.516;2023-06-19T11:59:46;34.60;40.20
7762;DHT22;3925;48.636;9.516;2023-06-19T12:02:13;34.80;42.50
7762;DHT22;3925;48.636;9.516;2023-06-19T12:04:40;35.00;42.00
7762;DHT22;3925;48.636;9.516;2023-06-19T12:07:08;34.90;40.90
7762;DHT22;3925;48.636;9.516;2023-06-19T12:09:36;35.10;39.70
7762;DHT22;3925;48.636;9.516;2023-06-19T12:12:05;34.90;40.90
7762;DHT22;3925;48.636;9.516;2023-06-19T12:14:32;33.50;40.70
7762;DHT22;3925;48.636;9.516;2023-06-19T12:16:59;33.80;43.30
7762;DHT22;3925;48.636;9.516;2023-06-19T12:19:27;33.60;41.30
7762;DHT22;3925;48.636;9.516;2023-06-19T12:21:54;33.50;42.40
7762;DHT22;3925;48.636;9.516;2023-06-19T12:24:22;33.50;42.50
7762;DHT22;3925;48.636;9.516;2023-06-19T12:26:49;33.10;42.90
7762;DHT22;3925;48.636;9.516;2023-06-19T12:29:16;33.00;43.10
7762;DHT22;3925;48.636;9.516;2023-06-19T12:31:43;32.90;44.50
7762;DHT22;3925;48.636;9.516;2023-06-19T12:34:10;32.70;43.60
7762;DHT22;3925;48.636;9.516;2023-06-19T12:36:37;33.10;45.60
7762;DHT22;3925;48.636;9.516;2023-06-19T12:39:04;33.00;44.30
7762;DHT22;3925;48.636;9.516;2023-06-19T12:41:33;33.00;44.50
7762;DHT22;3925;48.636;9.516;2023-06-19T12:44:00;33.00;45.20
7762;DHT22;3925;48.636;9.516;2023-06-19T12:46:27;33.30;45.10
7762;DHT22;3925;48.636;9.516;2023-06-19T12:48:53;33.30;44.10
7762;DHT22;3925;48.636;9.516;2023-06-19T12:51:20;33.10;44.60
7762;DHT22;3925;48.636;9.516;2023-06-19T12:53:47;33.50;44.90
7762;DHT22;3925;48.636;9.516;2023-06-19T12:56:14;33.30;43.80
7762;DHT22;3925;48.636;9.516;2023-06-19T12:58:42;33.10;42.80
7762;DHT22;3925;48.636;9.516;2023-06-19T13:01:09;33.00;45.20
7762;DHT22;3925;48.636;9.516;2023-06-19T13:03:36;32.90;44.10
7762;DHT22;3925;48.636;9.516;2023-06-19T13:06:03;33.30;45.60
7762;DHT22;3925;48.636;9.516;2023-06-19T13:08:30;33.10;44.20
7762;DHT22;3925;48.636;9.516;2023-06-19T13:10:57;33.00;42.90
7762;DHT22;3925;48.636;9.516;2023-06-19T13:13:23;32.70;44.00
7762;DHT22;3925;48.636;9.516;2023-06-19T13:15:52;32.20;44.20
7762;DHT22;3925;48.636;9.516;2023-06-19T13:18:18;32.20;45.40
7762;DHT22;3925;48.636;9.516;2023-06-19T13:20:45;32.20;45.70
7762;DHT22;3925;48.636;9.516;2023-06-19T13:23:13;32.00;46.00
7762;DHT22;3925;48.636;9.516;2023-06-19T13:25:40;31.90;48.20
7762;DHT22;3925;48.636;9.516;2023-06-19T13:28:07;32.00;47.10
7762;DHT22;3925;48.636;9.516;2023-06-19T13:30:34;32.00;47.00
7762;DHT22;3925;48.636;9.516;2023-06-19T13:33:02;32.10;46.00
7762;DHT22;3925;48.636;9.516;2023-06-19T13:35:29;32.20;46.50
7762;DHT22;3925;48.636;9.516;2023-06-19T13:37:56;32.40;46.40
7762;DHT22;3925;48.636;9.516;2023-06-19T13:40:23;32.50;46.40
7762;DHT22;3925;48.636;9.516;2023-06-19T13:42:50;33.00;46.30
7762;DHT22;3925;48.636;9.516;2023-06-19T13:45:17;33.10;44.40
7762;DHT22;3925;48.636;9.516;2023-06-19T13:47:43;32.70;44.90
7762;DHT22;3925;48.636;9.516;2023-06-19T13:50:12;33.00;45.90
7762;DHT22;3925;48.636;9.516;2023-06-19T13:52:44;32.80;43.80
7762;DHT22;3925;48.636;9.516;2023-06-19T13:55:11;32.20;44.40
7762;DHT22;3925;48.636;9.516;2023-06-19T13:57:39;31.40;45.80
7762;DHT22;3925;48.636;9.516;2023-06-19T14:00:07;31.90;45.90
7762;DHT22;3925;48.636;9.516;2023-06-19T14:02:36;32.00;44.60
7762;DHT22;3925;48.636;9.516;2023-06-19T14:05:04;31.90;44.40
7762;DHT22;3925;48.636;9.516;2023-06-19T14:07:33;31.90;44.30
7762;DHT22;3925;48.636;9.516;2023-06-19T14:10:01;31.90;45.60
7762;DHT22;3925;48.636;9.516;2023-06-19T14:12:29;32.10;47.30
7762;DHT22;3925;48.636;9.516;2023-06-19T14:14:56;32.10;47.00
7762;DHT22;3925;48.636;9.516;2023-06-19T14:17:23;32.20;47.10
7762;DHT22;3925;48.636;9.516;2023-06-19T14:19:50;32.30;47.70
7762;DHT22;3925;48.636;9.516;2023-06-19T14:22:17;32.40;45.60
7762;DHT22;3925;48.636;9.516;2023-06-19T14:24:45;32.20;46.60
7762;DHT22;3925;48.636;9.516;2023-06-19T14:27:12;32.10;45.70
7762;DHT22;3925;48.636;9.516;2023-06-19T14:29:39;32.00;44.90
7762;DHT22;3925;48.636;9.516;2023-06-19T14:32:06;31.80;46.20
7762;DHT22;3925;48.636;9.516;2023-06-19T14:34:33;31.50;46.20
7762;DHT22;3925;48.636;9.516;2023-06-19T14:37:00;31.00;46.50
7762;DHT22;3925;48.636;9.516;2023-06-19T14:39:27;30.60;48.20
7762;DHT22;3925;48.636;9.516;2023-06-19T14:41:55;30.60;48.40
7762;DHT22;3925;48.636;9.516;2023-06-19T14:44:22;31.00;49.20
7762;DHT22;3925;48.636;9.516;2023-06-19T14:46:49;31.20;49.30
7762;DHT22;3925;48.636;9.516;2023-06-19T14:49:16;31.20;47.70
7762;DHT22;3925;48.636;9.516;2023-06-19T14:51:43;31.10;48.10
7762;DHT22;3925;48.636;9.516;2023-06-19T14:54:09;31.10;48.20
7762;DHT22;3925;48.636;9.516;2023-06-19T14:56:36;31.20;47.80
7762;DHT22;3925;48.636;9.516;2023-06-19T14:59:04;31.30;47.70
7762;DHT22;3925;48.636;9.516;2023-06-19T15:01:31;31.30;48.70
7762;DHT22;3925;48.636;9.516;2023-06-19T15:03:58;31.40;48.10
7762;DHT22;3925;48.636;9.516;2023-06-19T15:06:25;31.40;47.50
7762;DHT22;3925;48.636;9.516;2023-06-19T15:08:52;31.50;47.30
7762;DHT22;3925;48.636;9.516;2023-06-19T15:11:19;31.60;46.90
7762;DHT22;3925;48.636;9.516;2023-06-19T15:13:46;31.60;47.40
7762;DHT22;3925;48.636;9.516;2023-06-19T15:16:14;31.60;47.50
7762;DHT22;3925;48.636;9.516;2023-06-19T15:18:42;31.20;47.10
7762;DHT22;3925;48.636;9.516;2023-06-19T15:21:09;31.40;48.60
7762;DHT22;3925;48.636;9.516;2023-06-19T15:23:36;31.40;46.50
7762;DHT22;3925;48.636;9.516;2023-06-19T15:26:04;31.40;47.60
7762;DHT22;3925;48.636;9.516;2023-06-19T15:28:33;31.20;46.60
7762;DHT22;3925;48.636;9.516;2023-06-19T15:31:01;31.20;48.00
7762;DHT22;3925;48.636;9.516;2023-06-19T15:33:29;31.30;48.50
7762;DHT22;3925;48.636;9.516;2023-06-19T15:35:56;31.50;48.40
7762;DHT22;3925;48.636;9.516;2023-06-19T15:38:23;31.60;47.90
7762;DHT22;3925;48.636;9.516;2023-06-19T15:40:50;31.60;48.60
7762;DHT22;3925;48.636;9.516;2023-06-19T15:43:17;31.70;48.60
7762;DHT22;3925;48.636;9.516;2023-06-19T15:45:43;31.50;48.40
7762;DHT22;3925;48.636;9.516;2023-06-19T15:48:10;31.60;50.00
7762;DHT22;3925;48.636;9.516;2023-06-19T15:50:40;31.60;48.90
7762;DHT22;3925;48.636;9.516;2023-06-19T15:53:10;31.60;48.70
7762;DHT22;3925;48.636;9.516;2023-06-19T15:55:37;31.60;48.80
7762;DHT22;3925;48.636;9.516;2023-06-19T15:58:04;31.50;48.30
7762;DHT22;3925;48.636;9.516;2023-06-19T16:00:31;31.30;48.30
7762;DHT22;3925;48.636;9.516;2023-06-19T16:02:57;31.20;48.90
7762;DHT22;3925;48.636;9.516;2023-06-19T16:05:24;31.20;49.50